createdAt,value
2023-08-31T00:00:11.569Z,10.40
2023-08-31T00:03:11.131Z,9.40
2023-08-31T00:05:44.398Z,11.00
2023-08-31T00:08:15.390Z,9.50
2023-08-31T00:10:43.965Z,10.80
2023-08-31T00:13:21.007Z,8.80
2023-08-31T00:18:56.951Z,16.30
2023-08-31T00:21:28.440Z,9.90
2023-08-31T00:23:56.745Z,9.10
2023-08-31T00:26:26.811Z,7.70
2023-08-31T00:28:57.937Z,9.50
2023-08-31T00:31:28.605Z,9.90
2023-08-31T00:36:59.895Z,11.10
2023-08-31T00:39:32.114Z,8.70
2023-08-31T00:42:05.670Z,10.40
2023-08-31T00:44:34.613Z,9.00
2023-08-31T00:47:10.592Z,8.40
2023-08-31T00:49:38.961Z,12.10
2023-08-31T00:52:08.900Z,9.50
2023-08-31T00:54:46.198Z,13.90
2023-08-31T01:00:15.522Z,9.40
2023-08-31T01:03:11.147Z,138.80
2023-08-31T01:05:54.552Z,106.50
2023-08-31T01:08:39.654Z,16.60
2023-08-31T01:11:35.734Z,10.90
2023-08-31T01:14:20.055Z,7.50
2023-08-31T01:16:54.898Z,10.80
2023-08-31T01:19:44.662Z,11.10
2023-08-31T01:22:19.458Z,9.00
2023-08-31T01:24:48.655Z,9.70
2023-08-31T01:27:26.911Z,10.50
2023-08-31T01:29:58.062Z,9.40
2023-08-31T01:32:39.592Z,8.10
2023-08-31T01:35:08.839Z,12.30
2023-08-31T01:38:09.994Z,9.80
2023-08-31T01:40:50.886Z,11.70
2023-08-31T01:43:20.619Z,7.50
2023-08-31T01:45:56.326Z,9.90
2023-08-31T01:48:24.682Z,8.50
2023-08-31T01:50:52.803Z,9.20
2023-08-31T01:53:21.006Z,73.10
2023-08-31T01:55:49.237Z,150.60
2023-08-31T01:58:17.305Z,12.70
2023-08-31T02:00:45.787Z,8.70
2023-08-31T02:03:14.373Z,8.40
2023-08-31T02:05:51.486Z,11.20
2023-08-31T02:08:19.930Z,8.00
2023-08-31T02:10:49.444Z,9.90
2023-08-31T02:13:23.776Z,13.40
2023-08-31T02:15:55.302Z,10.90
2023-08-31T02:18:23.734Z,21.10
2023-08-31T02:20:53.924Z,44.40
2023-08-31T02:23:22.200Z,139.30
2023-08-31T02:25:50.633Z,171.50
2023-08-31T02:28:20.609Z,119.70
2023-08-31T02:30:59.961Z,94.60
2023-08-31T02:33:31.260Z,106.80
2023-08-31T02:35:59.881Z,137.60
2023-08-31T02:38:28.454Z,122.40
2023-08-31T02:40:57.050Z,88.90
2023-08-31T02:43:26.604Z,52.50
2023-08-31T02:46:03.494Z,74.50
2023-08-31T02:48:34.328Z,66.40
2023-08-31T02:51:03.986Z,93.10
2023-08-31T02:53:32.801Z,146.70
2023-08-31T02:56:01.435Z,136.00
2023-08-31T02:58:30.537Z,147.90
2023-08-31T03:01:15.151Z,85.80
2023-08-31T03:03:47.830Z,67.10
2023-08-31T03:06:16.451Z,53.70
2023-08-31T03:08:44.821Z,56.00
2023-08-31T03:11:15.498Z,26.20
2023-08-31T03:13:44.155Z,30.20
2023-08-31T03:16:13.755Z,59.20
2023-08-31T03:18:43.486Z,63.30
2023-08-31T03:21:11.610Z,71.60
2023-08-31T03:23:40.734Z,33.50
2023-08-31T03:26:10.045Z,58.50
2023-08-31T03:28:39.839Z,110.80
2023-08-31T03:31:09.912Z,145.10
2023-08-31T03:33:38.442Z,165.80
2023-08-31T03:36:06.780Z,222.10
2023-08-31T03:38:39.260Z,302.40
2023-08-31T03:41:07.866Z,313.90
2023-08-31T03:43:36.305Z,331.50
2023-08-31T03:46:11.563Z,193.90
2023-08-31T03:48:40.513Z,189.60
2023-08-31T03:51:11.293Z,92.10
2023-08-31T03:53:39.556Z,197.30
2023-08-31T03:56:07.813Z,304.10
2023-08-31T03:58:35.966Z,229.60
2023-08-31T04:01:06.056Z,118.80
2023-08-31T04:03:34.977Z,169.80
2023-08-31T04:06:03.871Z,230.00
2023-08-31T04:08:32.235Z,152.60
2023-08-31T04:11:00.584Z,293.60
2023-08-31T04:13:28.740Z,161.60
2023-08-31T04:15:57.002Z,166.20
2023-08-31T04:18:25.513Z,324.70
2023-08-31T04:20:55.066Z,320.50
2023-08-31T04:23:23.191Z,334.40
2023-08-31T04:26:15.979Z,326.00
2023-08-31T04:28:45.798Z,325.10
2023-08-31T04:31:20.015Z,295.90
2023-08-31T04:33:49.469Z,237.10
2023-08-31T04:36:18.866Z,166.40
2023-08-31T04:39:11.458Z,318.20
2023-08-31T04:41:43.710Z,264.00
2023-08-31T04:44:23.670Z,194.30
2023-08-31T04:46:54.025Z,162.10
2023-08-31T04:49:22.331Z,218.40
2023-08-31T04:51:52.993Z,256.80
2023-08-31T04:54:22.547Z,256.80
2023-08-31T04:56:52.095Z,258.70
2023-08-31T04:59:22.242Z,310.80
2023-08-31T05:01:50.555Z,369.60
2023-08-31T05:04:20.709Z,512.50
2023-08-31T05:06:49.997Z,663.00
2023-08-31T05:09:18.081Z,435.90
2023-08-31T05:11:46.257Z,490.50
2023-08-31T05:14:14.580Z,532.10
2023-08-31T05:16:42.803Z,459.00
2023-08-31T05:19:11.109Z,483.30
2023-08-31T05:21:39.773Z,470.30
2023-08-31T05:24:08.137Z,375.40
2023-08-31T05:26:36.608Z,464.30
2023-08-31T05:29:07.769Z,472.50
2023-08-31T05:31:35.905Z,464.10
2023-08-31T05:34:51.962Z,302.30
2023-08-31T05:37:20.099Z,357.60
2023-08-31T05:39:52.264Z,277.40
2023-08-31T05:42:20.879Z,296.50
2023-08-31T05:44:49.030Z,399.80
2023-08-31T05:47:25.804Z,477.10
2023-08-31T05:49:54.051Z,246.60
2023-08-31T05:52:23.209Z,118.90
2023-08-31T05:55:01.896Z,284.20
2023-08-31T05:57:30.205Z,100.80
2023-08-31T05:59:58.565Z,127.50
2023-08-31T06:02:26.805Z,177.20
2023-08-31T06:04:55.061Z,186.50
2023-08-31T06:07:23.253Z,261.60
2023-08-31T06:09:51.720Z,226.00
2023-08-31T06:12:31.998Z,210.90
2023-08-31T06:15:02.138Z,158.30
2023-08-31T06:17:30.794Z,202.30
2023-08-31T06:19:59.132Z,141.00
2023-08-31T06:22:30.587Z,166.40
2023-08-31T06:24:59.092Z,132.50
2023-08-31T06:27:27.523Z,35.10
2023-08-31T06:29:56.068Z,32.10
2023-08-31T06:32:24.526Z,53.90
2023-08-31T06:34:53.065Z,20.80
2023-08-31T06:37:21.622Z,24.30
2023-08-31T06:39:50.065Z,17.10
2023-08-31T06:42:38.867Z,17.60
2023-08-31T06:45:09.154Z,17.00
2023-08-31T06:47:37.448Z,13.00
2023-08-31T06:50:06.458Z,14.50
2023-08-31T06:52:35.300Z,15.50
2023-08-31T06:55:04.581Z,14.10
2023-08-31T06:57:33.186Z,14.50
2023-08-31T07:00:15.734Z,15.50
2023-08-31T07:02:44.715Z,11.00
2023-08-31T07:05:33.586Z,11.20
2023-08-31T07:08:02.951Z,14.80
2023-08-31T07:10:31.550Z,12.30
2023-08-31T07:12:59.801Z,12.40
2023-08-31T07:15:28.346Z,14.00
2023-08-31T07:17:57.336Z,11.60
2023-08-31T07:20:39.472Z,13.60
2023-08-31T07:23:15.288Z,12.10
2023-08-31T07:28:31.122Z,11.30
2023-08-31T07:31:18.098Z,10.60
2023-08-31T07:33:46.416Z,8.60
2023-08-31T07:36:16.570Z,13.50
2023-08-31T07:39:06.928Z,9.30
2023-08-31T07:41:35.318Z,10.30
2023-08-31T07:44:05.063Z,11.40
2023-08-31T07:46:33.679Z,8.60
2023-08-31T07:49:05.631Z,8.50
2023-08-31T07:51:41.373Z,8.80
2023-08-31T07:54:24.856Z,15.90
2023-08-31T07:56:53.310Z,9.20
2023-08-31T08:02:03.995Z,7.40
2023-08-31T08:04:32.464Z,9.00
2023-08-31T08:07:00.845Z,8.90
2023-08-31T08:09:29.972Z,12.60
2023-08-31T08:12:00.428Z,19.10
2023-08-31T08:14:29.826Z,13.00
2023-08-31T08:16:58.227Z,10.20
2023-08-31T08:19:26.595Z,10.60
2023-08-31T08:21:54.958Z,10.50
2023-08-31T08:24:23.210Z,13.10
2023-08-31T08:27:05.906Z,10.70
2023-08-31T08:29:51.655Z,9.60
2023-08-31T08:32:26.829Z,9.90
2023-08-31T08:34:55.327Z,13.70
2023-08-31T08:40:20.103Z,8.20
2023-08-31T08:42:48.498Z,6.80
2023-08-31T08:45:17.214Z,6.70
2023-08-31T08:47:45.985Z,9.10
2023-08-31T08:50:28.923Z,9.00
2023-08-31T08:52:57.372Z,6.20
2023-08-31T08:55:25.798Z,8.50
2023-08-31T08:57:54.078Z,11.50
2023-08-31T09:00:22.527Z,6.40
2023-08-31T09:02:50.727Z,6.10
2023-08-31T09:05:19.690Z,8.10
2023-08-31T09:08:13.443Z,6.00
2023-08-31T09:10:43.820Z,6.20
2023-08-31T09:13:19.297Z,7.90
2023-08-31T09:15:50.366Z,6.10
2023-08-31T09:18:25.879Z,6.90
2023-08-31T09:20:55.748Z,6.20
2023-08-31T09:23:24.727Z,6.20
2023-08-31T09:28:42.323Z,7.20
2023-08-31T09:31:12.724Z,9.40
2023-08-31T09:33:51.342Z,8.30
2023-08-31T09:36:21.646Z,9.60
2023-08-31T09:38:59.234Z,6.70
2023-08-31T09:41:27.654Z,6.20
2023-08-31T09:43:56.008Z,6.20
2023-08-31T09:46:31.388Z,6.10
2023-08-31T09:49:00.298Z,6.50
2023-08-31T09:51:36.257Z,5.80
2023-08-31T09:54:06.784Z,6.40
2023-08-31T09:59:16.908Z,5.50
2023-08-31T10:01:49.472Z,7.10
2023-08-31T10:04:18.737Z,5.50
2023-08-31T10:06:47.287Z,5.70
2023-08-31T10:09:34.236Z,6.00
2023-08-31T10:12:17.643Z,4.10
2023-08-31T10:17:37.515Z,5.20
2023-08-31T10:20:07.597Z,3.90
2023-08-31T10:22:58.936Z,6.00
2023-08-31T10:25:47.017Z,3.60
2023-08-31T10:28:19.261Z,5.00
2023-08-31T10:31:07.770Z,5.40
2023-08-31T10:33:40.641Z,10.40
2023-08-31T10:36:16.310Z,4.20
2023-08-31T10:38:58.249Z,7.00
2023-08-31T10:41:49.154Z,6.00
2023-08-31T10:44:35.642Z,6.30
2023-08-31T10:47:06.958Z,6.40
2023-08-31T10:50:20.556Z,4.60
2023-08-31T10:52:51.019Z,5.40
2023-08-31T10:55:19.850Z,5.10
2023-08-31T10:57:49.513Z,4.90
2023-08-31T11:00:58.064Z,5.40
2023-08-31T11:03:31.325Z,3.70
2023-08-31T11:05:59.502Z,5.50
2023-08-31T11:08:27.755Z,5.30
2023-08-31T11:11:41.200Z,5.80
2023-08-31T11:14:20.125Z,5.30
2023-08-31T11:16:48.384Z,4.50
2023-08-31T11:19:37.908Z,5.30
2023-08-31T11:22:10.928Z,6.60
2023-08-31T11:24:39.260Z,6.50
2023-08-31T11:27:11.335Z,5.30
2023-08-31T11:29:46.900Z,3.70
2023-08-31T11:32:15.283Z,4.90
2023-08-31T11:34:46.392Z,5.40
2023-08-31T11:37:17.211Z,4.90
2023-08-31T11:39:53.560Z,5.70
2023-08-31T11:42:23.165Z,6.20
2023-08-31T11:44:53.908Z,5.60
2023-08-31T11:47:22.375Z,5.70
2023-08-31T11:49:54.558Z,5.10
2023-08-31T11:52:43.421Z,6.50
2023-08-31T11:55:18.506Z,5.70
2023-08-31T11:57:59.816Z,8.80
2023-08-31T12:00:34.646Z,13.50
2023-08-31T12:03:13.021Z,37.50
2023-08-31T12:09:37.568Z,10.10
2023-08-31T12:12:09.232Z,15.70
2023-08-31T12:14:42.845Z,11.40
2023-08-31T12:17:13.670Z,10.40
2023-08-31T12:23:17.292Z,13.20
2023-08-31T12:25:55.985Z,15.60
2023-08-31T12:28:25.702Z,6.90
2023-08-31T12:31:07.821Z,8.50
2023-08-31T12:33:53.736Z,8.00
2023-08-31T12:36:24.707Z,7.40
2023-08-31T12:39:11.097Z,7.60
2023-08-31T12:41:41.412Z,7.80
2023-08-31T12:44:12.385Z,8.40
2023-08-31T12:55:48.556Z,8.10
2023-08-31T12:58:43.634Z,11.00
2023-08-31T13:01:27.791Z,6.90
2023-08-31T13:04:06.471Z,8.10
2023-08-31T13:06:34.886Z,9.50
2023-08-31T13:09:04.520Z,6.80
2023-08-31T13:14:21.651Z,6.30
2023-08-31T13:17:04.917Z,7.60
2023-08-31T13:19:38.008Z,7.30
2023-08-31T13:22:20.495Z,8.90
2023-08-31T13:25:02.583Z,5.80
2023-08-31T13:27:34.485Z,6.00
2023-08-31T13:31:06.539Z,7.00
2023-08-31T13:36:57.849Z,7.50
2023-08-31T13:42:10.798Z,6.10
2023-08-31T13:44:55.148Z,5.60
2023-08-31T13:47:37.982Z,9.60
2023-08-31T13:55:56.917Z,6.30
2023-08-31T13:58:38.926Z,6.20
2023-08-31T14:01:21.043Z,6.70
2023-08-31T14:03:49.209Z,9.70
2023-08-31T14:06:17.592Z,10.90
2023-08-31T14:09:00.299Z,6.30
2023-08-31T14:12:00.854Z,6.30
2023-08-31T14:14:31.783Z,6.60
2023-08-31T14:17:01.199Z,4.80
2023-08-31T14:25:06.583Z,8.30
2023-08-31T14:27:36.846Z,5.20
2023-08-31T14:30:07.165Z,6.30
2023-08-31T14:32:37.745Z,4.90
2023-08-31T14:35:45.740Z,7.80
2023-08-31T14:38:39.415Z,5.60
2023-08-31T14:41:22.322Z,7.40
2023-08-31T14:44:04.772Z,5.90
2023-08-31T14:46:32.891Z,6.00
2023-08-31T14:49:01.083Z,6.20
2023-08-31T14:51:29.364Z,5.40
2023-08-31T14:53:58.440Z,8.50
2023-08-31T14:56:26.778Z,6.00
2023-08-31T14:58:57.549Z,8.20
2023-08-31T15:01:26.645Z,6.40
2023-08-31T15:03:54.779Z,6.60
2023-08-31T15:06:22.773Z,9.70
2023-08-31T15:08:51.059Z,8.10
2023-08-31T15:11:19.253Z,8.30
2023-08-31T15:13:47.407Z,5.80
2023-08-31T15:16:15.770Z,8.50
2023-08-31T15:18:45.705Z,8.10
2023-08-31T15:21:14.070Z,6.30
2023-08-31T15:23:42.311Z,4.80
2023-08-31T15:26:10.287Z,4.80
2023-08-31T15:28:38.331Z,6.20
2023-08-31T15:31:06.341Z,5.70
2023-08-31T15:33:34.821Z,5.10
2023-08-31T15:36:07.019Z,4.90
2023-08-31T15:38:36.858Z,5.70
2023-08-31T15:41:06.858Z,7.70
2023-08-31T15:46:04.796Z,9.60
2023-08-31T15:48:33.005Z,8.10
2023-08-31T15:51:01.503Z,6.60
2023-08-31T15:53:29.903Z,5.40
2023-08-31T15:55:58.085Z,5.10
2023-08-31T15:58:28.014Z,5.20
2023-08-31T16:01:02.285Z,4.60
2023-08-31T16:03:33.973Z,4.70
2023-08-31T16:06:02.133Z,5.20
2023-08-31T16:08:30.328Z,7.40
2023-08-31T16:10:58.885Z,5.30
2023-08-31T16:13:27.019Z,4.50
2023-08-31T16:15:56.704Z,6.50
2023-08-31T16:18:27.644Z,5.60
2023-08-31T16:20:55.692Z,8.10
2023-08-31T16:23:23.867Z,6.80
2023-08-31T16:26:02.288Z,6.40
2023-08-31T16:28:31.805Z,8.20
2023-08-31T16:31:00.719Z,6.20
2023-08-31T16:33:28.841Z,6.10
2023-08-31T16:36:04.181Z,6.30
2023-08-31T16:38:32.494Z,7.10
2023-08-31T16:41:01.865Z,10.00
2023-08-31T16:43:30.922Z,8.30
2023-08-31T16:46:04.830Z,8.90
2023-08-31T16:48:46.906Z,9.20
2023-08-31T16:51:15.544Z,7.40
2023-08-31T16:53:43.945Z,12.20
2023-08-31T16:56:13.362Z,6.80
2023-08-31T16:58:41.472Z,8.00
2023-08-31T17:01:09.779Z,5.80
2023-08-31T17:03:38.448Z,7.20
2023-08-31T17:06:06.784Z,10.60
2023-08-31T17:08:35.189Z,5.30
2023-08-31T17:11:07.023Z,6.80
2023-08-31T17:13:35.123Z,8.10
2023-08-31T17:16:11.232Z,7.20
2023-08-31T17:18:39.564Z,6.70
2023-08-31T17:21:08.096Z,8.70
2023-08-31T17:23:37.297Z,6.80
2023-08-31T17:26:05.522Z,7.20
2023-08-31T17:28:36.514Z,7.30
2023-08-31T17:31:05.464Z,7.60
2023-08-31T17:33:34.158Z,7.10
2023-08-31T17:36:03.693Z,7.20
2023-08-31T17:38:35.673Z,9.50
2023-08-31T17:41:04.776Z,7.20
2023-08-31T17:43:32.888Z,8.80
2023-08-31T17:46:01.802Z,6.60
2023-08-31T17:48:29.873Z,7.70
2023-08-31T17:50:58.812Z,7.30
2023-08-31T17:53:27.087Z,9.90
2023-08-31T17:55:55.395Z,11.60
2023-08-31T17:58:25.938Z,16.40
2023-08-31T18:01:06.247Z,8.90
2023-08-31T18:03:34.786Z,7.70
2023-08-31T18:06:03.981Z,7.00
2023-08-31T18:08:34.504Z,9.40
2023-08-31T18:11:02.704Z,11.10
2023-08-31T18:13:30.791Z,8.90
2023-08-31T18:15:58.978Z,9.90
2023-08-31T18:18:29.918Z,8.60
2023-08-31T18:21:02.094Z,9.60
2023-08-31T18:23:30.797Z,10.10
2023-08-31T18:25:58.814Z,9.80
2023-08-31T18:28:26.956Z,10.80
2023-08-31T18:31:01.397Z,9.40
2023-08-31T18:33:30.136Z,10.40
2023-08-31T18:36:00.959Z,10.80
2023-08-31T18:41:25.022Z,9.20
2023-08-31T18:43:53.281Z,10.20
2023-08-31T18:46:21.697Z,13.10
2023-08-31T18:48:49.892Z,10.10
2023-08-31T18:51:34.757Z,10.20
2023-08-31T18:54:15.041Z,9.20
2023-08-31T18:56:43.810Z,10.60
2023-08-31T18:59:32.470Z,9.50
2023-08-31T19:02:01.185Z,13.50
2023-08-31T19:05:08.074Z,9.90
2023-08-31T19:07:36.603Z,9.20
2023-08-31T19:10:08.932Z,9.60
2023-08-31T19:12:58.179Z,9.40
2023-08-31T19:15:30.519Z,10.10
2023-08-31T19:18:04.802Z,11.50
2023-08-31T19:20:38.958Z,18.10
2023-08-31T19:23:10.358Z,12.10
2023-08-31T19:25:44.177Z,16.90
2023-08-31T19:28:14.851Z,13.20
2023-08-31T19:30:43.221Z,13.40
2023-08-31T19:33:31.693Z,14.10
2023-08-31T19:36:02.013Z,20.30
2023-08-31T19:38:42.439Z,13.80
2023-08-31T19:41:15.920Z,11.00
2023-08-31T19:43:48.686Z,12.00
2023-08-31T19:46:20.296Z,11.00
2023-08-31T19:48:48.590Z,11.90
2023-08-31T19:51:18.889Z,8.60
2023-08-31T19:53:50.077Z,9.30
2023-08-31T19:56:26.690Z,8.70
2023-08-31T19:59:03.091Z,7.90
2023-08-31T20:01:54.239Z,8.10
2023-08-31T20:04:24.425Z,10.50
2023-08-31T20:06:55.568Z,9.40
2023-08-31T20:09:43.305Z,11.80
2023-08-31T20:12:20.999Z,8.90
2023-08-31T20:14:49.548Z,16.10
2023-08-31T20:17:21.710Z,10.30
2023-08-31T20:19:50.347Z,14.40
2023-08-31T20:22:18.660Z,10.00
2023-08-31T20:24:46.904Z,11.80
2023-08-31T20:27:17.385Z,10.30
2023-08-31T20:29:46.550Z,11.10
2023-08-31T20:32:14.668Z,13.30
2023-08-31T20:34:47.515Z,9.30
2023-08-31T20:37:21.776Z,9.80
2023-08-31T20:39:55.415Z,9.40
2023-08-31T20:42:23.565Z,10.80
2023-08-31T20:47:46.138Z,10.80
2023-08-31T20:50:24.524Z,11.30
2023-08-31T20:52:53.561Z,13.00
2023-08-31T20:55:31.835Z,11.50
2023-08-31T20:58:03.427Z,10.90
2023-08-31T21:00:31.722Z,10.90
2023-08-31T21:03:00.023Z,12.70
2023-08-31T21:05:28.449Z,9.80
2023-08-31T21:07:56.720Z,12.80
2023-08-31T21:10:26.626Z,12.90
2023-08-31T21:12:57.552Z,12.80
2023-08-31T21:15:32.093Z,14.50
2023-08-31T21:18:06.638Z,11.10
2023-08-31T21:20:38.145Z,12.00
2023-08-31T21:25:42.662Z,9.40
2023-08-31T21:28:23.580Z,11.60
2023-08-31T21:30:57.071Z,11.90
2023-08-31T21:33:39.392Z,9.60
2023-08-31T21:36:09.418Z,13.30
2023-08-31T21:38:48.250Z,15.10
2023-08-31T21:41:28.359Z,11.10
2023-08-31T21:43:57.435Z,11.70
2023-08-31T21:46:42.331Z,12.30
2023-08-31T21:49:13.656Z,13.10
2023-08-31T21:51:44.995Z,14.10
2023-08-31T21:54:22.218Z,13.70
2023-08-31T21:56:50.317Z,10.10
2023-08-31T21:59:18.672Z,12.20
2023-08-31T22:01:46.799Z,14.00
2023-08-31T22:04:22.031Z,12.20
2023-08-31T22:06:55.392Z,12.10
2023-08-31T22:09:23.748Z,12.40
2023-08-31T22:11:53.136Z,10.90
2023-08-31T22:14:21.518Z,11.30
2023-08-31T22:17:02.216Z,14.90
2023-08-31T22:19:47.278Z,11.90
2023-08-31T22:22:26.545Z,11.30
2023-08-31T22:24:55.070Z,11.50
2023-08-31T22:27:38.655Z,17.20
2023-08-31T22:30:25.493Z,12.70
2023-08-31T22:36:28.471Z,15.40
2023-08-31T22:38:57.938Z,13.70
2023-08-31T22:41:24.590Z,11.30
2023-08-31T22:43:56.861Z,14.80
2023-08-31T22:46:23.957Z,18.60
2023-08-31T22:48:54.664Z,12.40
2023-08-31T22:51:23.977Z,13.60
2023-08-31T22:53:54.664Z,14.30
2023-08-31T22:56:24.459Z,11.70
2023-08-31T22:58:51.166Z,13.50
2023-08-31T23:01:20.816Z,15.30
2023-08-31T23:03:48.123Z,11.60
2023-08-31T23:06:14.701Z,15.80
2023-08-31T23:08:41.437Z,12.70
2023-08-31T23:11:10.429Z,12.50
2023-08-31T23:13:39.970Z,13.80
2023-08-31T23:16:10.301Z,15.20
2023-08-31T23:18:42.414Z,14.70
2023-08-31T23:21:10.810Z,11.90
2023-08-31T23:23:37.559Z,14.30
2023-08-31T23:26:06.624Z,17.70
2023-08-31T23:28:36.188Z,11.90
2023-08-31T23:31:02.794Z,13.60
2023-08-31T23:33:29.495Z,12.40
2023-08-31T23:35:56.223Z,15.40
2023-08-31T23:38:23.388Z,12.30
2023-08-31T23:40:59.119Z,11.70
2023-08-31T23:43:25.763Z,11.00
2023-08-31T23:45:52.259Z,11.90
2023-08-31T23:48:18.832Z,14.00
2023-08-31T23:50:45.444Z,12.10
2023-08-31T23:53:12.018Z,15.20
2023-08-31T23:55:42.222Z,16.70
